Time;durP1;ratioP1;P1;durP2;ratioP2;P2;SDS_P1;SDS_P2;PMS_P1;PMS_P2;Temp;Humidity;BMP_temperature;BMP_pressure;BME280_temperature;BME280_humidity;BME280_pressure;Samples;Min_cycle;Max_cycle;Signal;HPM_P1;HPM_P2
2023/06/07 00:05:05;;;;;;;9.57;5.20;;;17.30;99.90;;;;;;10075762;29;20548;-87
2023/06/07 00:10:26;;;;;;;8.27;4.72;;;17.30;99.90;;;;;;10046509;29;20207;-78
2023/06/07 00:15:47;;;;;;;7.32;4.93;;;17.30;99.90;;;;;;10047772;29;20518;-75
2023/06/07 00:21:09;;;;;;;10.45;5.13;;;17.20;99.90;;;;;;10043460;29;20243;-83
2023/06/07 00:26:30;;;;;;;10.23;5.20;;;17.00;99.90;;;;;;10043684;29;20396;-77
2023/06/07 00:31:52;;;;;;;7.88;5.32;;;16.90;99.90;;;;;;10044317;29;20230;-74
2023/06/07 00:37:13;;;;;;;8.60;5.10;;;16.90;99.90;;;;;;10043181;29;20236;-74
2023/06/07 00:42:34;;;;;;;7.38;4.57;;;16.80;99.90;;;;;;10082169;29;20234;-74
2023/06/07 00:47:56;;;;;;;8.80;5.18;;;16.70;99.90;;;;;;10061602;29;20555;-78
2023/06/07 00:53:18;;;;;;;7.28;4.78;;;16.60;99.90;;;;;;10044166;29;20222;-75
2023/06/07 00:58:39;;;;;;;6.00;4.03;;;16.50;99.90;;;;;;10046684;29;20211;-86
2023/06/07 01:04:00;;;;;;;7.57;3.97;;;16.50;99.90;;;;;;10057009;29;20279;-87
2023/06/07 01:09:24;;;;;;;5.03;3.78;;;16.40;99.90;;;;;;10056705;29;20206;-85
2023/06/07 01:14:49;;;;;;;6.97;4.43;;;16.30;99.90;;;;;;10068133;29;20198;-75
2023/06/07 01:20:15;;;;;;;5.07;3.83;;;16.20;99.90;;;;;;10021790;29;20247;-86
2023/06/07 01:25:38;;;;;;;5.32;3.92;;;16.20;99.90;;;;;;10058271;29;20238;-82
2023/06/07 01:31:01;;;;;;;6.75;4.05;;;16.00;99.90;;;;;;10016281;29;20561;-84
2023/06/07 01:36:25;;;;;;;8.98;5.72;;;15.90;99.90;;;;;;10044730;29;20490;-84
2023/06/07 01:41:49;;;;;;;9.90;6.25;;;15.90;99.90;;;;;;10034921;29;20240;-85
2023/06/07 01:47:12;;;;;;;11.05;5.47;;;15.60;99.90;;;;;;10041686;29;20215;-86
2023/06/07 01:52:34;;;;;;;6.97;5.00;;;15.70;99.90;;;;;;10041717;29;20210;-75
2023/06/07 01:58:33;;;;;;;13.63;5.18;;;15.70;99.90;;;;;;10047028;29;20237;-83
2023/06/07 02:03:55;;;;;;;6.47;4.57;;;15.60;99.90;;;;;;10049989;29;20237;-85
2023/06/07 02:09:20;;;;;;;6.38;4.85;;;15.60;99.90;;;;;;10079003;29;20249;-85
2023/06/07 02:14:42;;;;;;;7.78;5.05;;;15.60;99.90;;;;;;10077386;29;20201;-79
2023/06/07 02:20:08;;;;;;;7.18;4.30;;;15.60;99.90;;;;;;10040275;29;20565;-82
2023/06/07 02:25:34;;;;;;;5.43;3.95;;;15.50;99.90;;;;;;10040948;29;20238;-83
2023/06/07 02:30:57;;;;;;;5.47;4.10;;;15.50;99.90;;;;;;10040071;29;20210;-83
2023/06/07 02:36:21;;;;;;;8.70;5.40;;;15.50;99.90;;;;;;10030065;29;20289;-80
2023/06/07 02:41:42;;;;;;;8.25;6.00;;;15.40;99.90;;;;;;10057585;29;20268;-83
2023/06/07 02:47:04;;;;;;;7.40;5.60;;;15.40;99.90;;;;;;10066417;29;20214;-82
2023/06/07 02:52:26;;;;;;;8.48;5.65;;;15.50;99.90;;;;;;10048810;29;20201;-79
2023/06/07 02:57:47;;;;;;;16.10;9.90;;;15.40;99.90;;;;;;10068662;29;20222;-82
2023/06/07 03:03:12;;;;;;;11.02;7.07;;;15.50;99.90;;;;;;10056678;29;20227;-82
2023/06/07 03:08:40;;;;;;;8.27;5.32;;;15.60;99.90;;;;;;10050032;29;20227;-78
2023/06/07 03:14:03;;;;;;;6.63;4.57;;;15.60;99.90;;;;;;10047169;29;20414;-83
2023/06/07 03:19:32;;;;;;;5.80;4.32;;;15.70;99.90;;;;;;10049787;29;20288;-79
2023/06/07 03:24:57;;;;;;;6.78;4.63;;;15.70;99.90;;;;;;10046677;29;20421;-82
2023/06/07 03:30:19;;;;;;;5.45;4.03;;;15.60;99.90;;;;;;10046407;29;20262;-82
2023/06/07 03:35:44;;;;;;;9.00;4.95;;;15.60;99.90;;;;;;10046411;29;20210;-82
2023/06/07 03:41:11;;;;;;;11.07;5.75;;;15.60;1.00;;;;;;10071822;29;20212;-81
2023/06/07 03:46:34;;;;;;;6.60;5.18;;;15.60;1.00;;;;;;10059126;29;20202;-83
2023/06/07 03:51:55;;;;;;;8.40;5.10;;;15.50;1.00;;;;;;10045794;29;20198;-80
2023/06/07 03:57:18;;;;;;;8.20;4.70;;;15.60;1.00;;;;;;10033531;29;20247;-79
2023/06/07 04:02:41;;;;;;;7.90;5.10;;;15.70;1.00;;;;;;10057269;29;20487;-82
2023/06/07 04:08:05;;;;;;;6.97;4.70;;;15.80;1.00;;;;;;10083329;29;20197;-86
2023/06/07 04:13:26;;;;;;;6.57;5.00;;;15.90;1.00;;;;;;10053164;29;20206;-81
2023/06/07 04:18:47;;;;;;;5.35;3.83;;;16.00;1.00;;;;;;10031732;29;20214;-78
2023/06/07 04:24:10;;;;;;;11.10;4.50;;;16.10;1.00;;;;;;10044199;29;20226;-80
2023/06/07 04:29:33;;;;;;;7.35;4.30;;;16.20;1.00;;;;;;10081408;29;20218;-82
2023/06/07 04:34:56;;;;;;;9.27;4.80;;;16.20;1.00;;;;;;10082766;29;20206;-78
2023/06/07 04:40:18;;;;;;;7.15;4.70;;;16.30;1.00;;;;;;10052799;29;20218;-77
2023/06/07 04:45:41;;;;;;;6.75;4.53;;;16.40;1.00;;;;;;10044054;29;20228;-79
2023/06/07 04:51:04;;;;;;;7.32;3.90;;;16.50;1.00;;;;;;10029804;29;20527;-74
2023/06/07 04:56:33;;;;;;;6.05;4.35;;;16.60;1.00;;;;;;10050264;29;20221;-74
2023/06/07 05:01:57;;;;;;;8.43;4.25;;;16.70;1.00;;;;;;10067357;29;20248;-77
2023/06/07 05:07:19;;;;;;;5.53;3.95;;;16.90;1.00;;;;;;10032447;29;20220;-78
2023/06/07 05:12:45;;;;;;;8.57;3.78;;;17.10;1.00;;;;;;10062892;29;20214;-76
2023/06/07 05:18:08;;;;;;;6.95;3.70;;;17.30;1.00;;;;;;10080660;29;20198;-82
2023/06/07 05:23:30;;;;;;;5.63;3.92;;;17.70;1.00;;;;;;10062282;29;20253;-83
2023/06/07 05:28:53;;;;;;;6.93;3.78;;;17.90;1.00;;;;;;10067401;29;20203;-81
2023/06/07 05:34:15;;;;;;;6.70;3.65;;;18.20;1.00;;;;;;10054533;29;20274;-81
2023/06/07 05:39:37;;;;;;;9.30;3.75;;;18.30;1.00;;;;;;10061890;29;20505;-81
2023/06/07 05:44:58;;;;;;;5.57;3.22;;;18.60;1.00;;;;;;10080027;29;20229;-82
2023/06/07 05:50:20;;;;;;;9.93;3.88;;;18.80;1.00;;;;;;10066745;29;20199;-85
2023/06/07 05:55:45;;;;;;;8.07;2.95;;;19.10;1.00;;;;;;10056808;29;20206;-85
2023/06/07 06:01:10;;;;;;;14.43;4.50;;;19.40;1.00;;;;;;10049828;29;20255;-74
2023/06/07 06:06:31;;;;;;;14.52;4.30;;;19.60;1.00;;;;;;10069838;29;20225;-78
2023/06/07 06:11:55;;;;;;;12.18;4.15;;;19.90;99.90;;;;;;10027297;29;20206;-74
2023/06/07 06:17:16;;;;;;;10.70;4.35;;;20.20;99.90;;;;;;10040014;29;20192;-75
2023/06/07 06:22:38;;;;;;;10.07;3.72;;;20.40;99.90;;;;;;10039040;29;20472;-77
2023/06/07 06:27:59;;;;;;;6.20;2.88;;;20.80;99.90;;;;;;10040038;29;20195;-80
2023/06/07 06:33:21;;;;;;;6.88;3.15;;;21.10;99.90;;;;;;10041014;29;20219;-87
2023/06/07 06:38:42;;;;;;;5.55;3.03;;;21.50;99.90;;;;;;10047963;29;20506;-80
2023/06/07 06:44:03;;;;;;;3.03;2.72;;;22.10;99.90;;;;;;10079245;29;20226;-86
2023/06/07 06:49:25;;;;;;;6.32;2.95;;;22.70;99.90;;;;;;10063254;29;20208;-82
2023/06/07 06:54:47;;;;;;;6.72;3.00;;;23.40;99.90;;;;;;10068097;29;20285;-88
2023/06/07 07:00:10;;;;;;;5.68;3.17;;;23.90;99.90;;;;;;10040915;29;20195;-83
2023/06/07 07:05:32;;;;;;;12.18;3.30;;;24.50;99.90;;;;;;10063774;29;20234;-87
2023/06/07 07:10:53;;;;;;;6.22;3.05;;;25.00;99.90;;;;;;10078728;29;20201;-86
2023/06/07 07:16:16;;;;;;;6.38;3.40;;;25.50;99.90;;;;;;10077159;29;20219;-80
2023/06/07 07:21:38;;;;;;;5.25;3.15;;;25.90;99.90;;;;;;10047913;29;20258;-82
2023/06/07 07:27:00;;;;;;;7.05;3.33;;;26.40;99.90;;;;;;10038144;29;20257;-83
2023/06/07 07:32:22;;;;;;;4.72;3.20;;;26.90;99.90;;;;;;10072327;29;20238;-79
2023/06/07 07:37:44;;;;;;;4.75;2.92;;;27.30;99.90;;;;;;10075308;29;20578;-76
2023/06/07 07:43:05;;;;;;;12.45;4.32;;;27.70;99.90;;;;;;10077928;29;20229;-80
2023/06/07 07:48:26;;;;;;;10.27;3.20;;;27.90;99.90;;;;;;10075743;29;20217;-84
2023/06/07 07:53:48;;;;;;;7.03;3.25;;;28.30;99.90;;;;;;10075843;29;20211;-83
2023/06/07 07:59:09;;;;;;;7.88;3.42;;;28.70;99.90;;;;;;10041171;29;20614;-87
2023/06/07 08:04:30;;;;;;;14.95;5.05;;;29.00;99.90;;;;;;10065098;29;20439;-80
2023/06/07 08:09:52;;;;;;;14.73;3.90;;;29.30;99.90;;;;;;10058845;29;20454;-89
2023/06/07 08:15:13;;;;;;;4.65;3.33;;;29.60;99.90;;;;;;10076448;29;20228;-84
2023/06/07 08:20:35;;;;;;;11.63;4.50;;;29.80;99.90;;;;;;10079666;29;20266;-87
2023/06/07 08:26:00;;;;;;;13.75;7.07;;;30.00;99.90;;;;;;10040203;29;20425;-80
2023/06/07 08:31:22;;;;;;;7.07;3.33;;;30.30;99.90;;;;;;10062326;29;20195;-84
2023/06/07 08:36:43;;;;;;;5.55;4.20;;;30.50;99.90;;;;;;10077235;29;20206;-84
2023/06/07 08:42:06;;;;;;;6.22;3.78;;;30.70;99.90;;;;;;10063406;29;20227;-82
2023/06/07 08:47:28;;;;;;;3.80;3.20;;;31.10;99.90;;;;;;10077235;29;20209;-79
2023/06/07 08:52:52;;;;;;;6.10;3.15;;;;;;;;;;10045487;29;20436;-83
2023/06/07 08:58:15;;;;;;;4.90;3.28;;;31.50;99.90;;;;;;10040450;29;20244;-85
2023/06/07 09:03:36;;;;;;;5.50;3.30;;;31.90;99.90;;;;;;10038674;29;20223;-81
2023/06/07 09:08:57;;;;;;;7.35;3.47;;;31.80;99.90;;;;;;10062759;29;20429;-84
2023/06/07 09:14:20;;;;;;;4.95;2.92;;;32.10;99.90;;;;;;10077097;29;20198;-82
2023/06/07 09:19:42;;;;;;;5.72;2.83;;;32.20;99.90;;;;;;10092630;29;20233;-82
2023/06/07 09:25:07;;;;;;;7.40;2.75;;;32.50;99.90;;;;;;10100458;29;20234;-81
2023/06/07 09:30:29;;;;;;;9.80;3.97;;;;;;;;;;10077683;29;20281;-89
2023/06/07 09:36:09;;;;;;;6.72;2.78;;;33.00;99.90;;;;;;10043590;29;20244;-93
2023/06/07 09:41:31;;;;;;;6.80;3.10;;;33.30;99.90;;;;;;10047536;29;20290;-77
2023/06/07 09:46:54;;;;;;;5.65;2.75;;;33.50;99.90;;;;;;10067790;29;20223;-78
2023/06/07 09:52:16;;;;;;;6.35;2.90;;;33.70;99.90;;;;;;10060621;29;20210;-79
2023/06/07 09:57:37;;;;;;;3.60;3.03;;;33.80;99.90;;;;;;10049151;29;20233;-79
2023/06/07 10:03:05;;;;;;;4.63;2.85;;;33.90;99.90;;;;;;10062301;29;20245;-82
2023/06/07 10:08:27;;;;;;;5.97;2.60;;;33.90;99.90;;;;;;10055393;29;20241;-82
2023/06/07 10:13:48;;;;;;;3.63;2.97;;;33.30;99.90;;;;;;10067299;29;20198;-76
2023/06/07 10:19:45;;;;;;;4.28;2.60;;;33.50;99.90;;;;;;10072673;29;20282;-79
2023/06/07 10:25:18;;;;;;;2.90;2.15;;;33.00;99.90;;;;;;10061751;29;20241;-81
2023/06/07 10:30:55;;;;;;;4.30;3.17;;;31.80;99.90;;;;;;10069136;29;20381;-82
2023/06/07 10:36:19;;;;;;;6.03;3.47;;;30.90;99.90;;;;;;10057353;29;20207;-80
2023/06/07 10:41:41;;;;;;;4.35;2.65;;;31.60;99.90;;;;;;10061234;29;20248;-90
2023/06/07 10:47:21;;;;;;;3.33;2.63;;;30.70;99.90;;;;;;10073784;29;20277;-81
2023/06/07 10:53:02;;;;;;;4.55;2.80;;;30.00;99.90;;;;;;10074192;29;20203;-83
2023/06/07 10:58:29;;;;;;;3.83;2.50;;;29.80;99.90;;;;;;10028000;29;20211;-85
2023/06/07 11:03:52;;;;;;;3.22;2.53;;;30.80;99.90;;;;;;10036329;29;20230;-85
2023/06/07 11:09:22;;;;;;;4.43;3.40;;;31.50;99.90;;;;;;10051215;29;20205;-85
2023/06/07 11:15:20;;;;;;;3.72;2.72;;;31.50;99.90;;;;;;10070874;29;20218;-82
2023/06/07 11:20:48;;;;;;;5.65;2.78;;;31.50;99.90;;;;;;10108235;29;20481;-82
2023/06/07 11:26:13;;;;;;;3.13;2.83;;;32.00;99.90;;;;;;10106954;29;20238;-84
2023/06/07 11:52:26;;;;;;;5.82;3.13;;;33.10;99.90;;;;;;10515822;28;20755;-83
2023/06/07 11:57:53;;;;;;;3.83;3.15;;;33.10;99.90;;;;;;10501640;28;20207;-87
2023/06/07 12:03:21;;;;;;;5.55;3.20;;;32.80;99.90;;;;;;10489830;28;20199;-77
2023/06/07 12:08:52;;;;;;;7.82;3.05;;;32.90;99.90;;;;;;10480291;28;20234;-77
2023/06/07 12:14:32;;;;;;;5.38;2.80;;;33.10;99.90;;;;;;10481363;28;20283;-81
2023/06/07 12:20:09;;;;;;;2.60;2.35;;;33.00;99.90;;;;;;10470983;28;20218;-78
2023/06/07 12:25:30;;;;;;;8.68;3.42;;;32.80;99.90;;;;;;10503623;28;20250;-79
2023/06/07 12:30:51;;;;;;;2.97;2.60;;;32.80;99.90;;;;;;10482190;28;20447;-81
2023/06/07 12:36:12;;;;;;;8.02;2.85;;;32.80;99.90;;;;;;10484643;28;20199;-83
2023/06/07 12:41:34;;;;;;;3.65;2.72;;;33.00;99.90;;;;;;10507936;28;20482;-82
2023/06/07 12:46:55;;;;;;;8.05;3.17;;;33.10;99.90;;;;;;10500018;28;20213;-77
2023/06/07 12:52:18;;;;;;;8.13;3.80;;;33.00;99.90;;;;;;10507470;28;20588;-81
2023/06/07 12:57:39;;;;;;;3.92;3.17;;;33.10;99.90;;;;;;10507867;28;20274;-87
2023/06/07 13:03:00;;;;;;;5.38;2.72;;;33.20;99.90;;;;;;10441772;28;20211;-86
2023/06/07 13:08:21;;;;;;;7.10;4.43;;;33.10;99.90;;;;;;10441122;28;20278;-87
2023/06/07 13:13:44;;;;;;;9.20;3.53;;;33.00;99.90;;;;;;10437405;28;20212;-82
2023/06/07 13:19:05;;;;;;;4.40;3.75;;;32.50;99.90;;;;;;10506341;28;20524;-86
2023/06/07 13:24:27;;;;;;;5.50;3.25;;;31.80;99.90;;;;;;10477424;28;20204;-81
2023/06/07 13:29:48;;;;;;;8.60;3.47;;;31.10;99.90;;;;;;10480334;28;20473;-81
2023/06/07 13:35:09;;;;;;;3.75;3.15;;;30.70;99.90;;;;;;10510649;28;20429;-79
2023/06/07 13:40:31;;;;;;;5.13;3.05;;;30.30;99.90;;;;;;10481614;28;20250;-88
2023/06/07 13:45:53;;;;;;;4.47;3.20;;;30.50;99.90;;;;;;10474384;28;20265;-85
2023/06/07 13:51:14;;;;;;;3.97;2.72;;;30.70;99.90;;;;;;10475713;28;20282;-80
2023/06/07 13:56:35;;;;;;;6.47;2.53;;;31.00;99.90;;;;;;10471954;28;20211;-84
2023/06/07 14:01:57;;;;;;;5.65;2.95;;;30.70;99.90;;;;;;10476708;28;20188;-89
2023/06/07 14:07:19;;;;;;;4.88;2.90;;;30.20;99.90;;;;;;10473075;28;20231;-82
2023/06/07 14:12:40;;;;;;;3.55;2.78;;;29.70;99.90;;;;;;10438815;28;20250;-83
2023/06/07 14:18:02;;;;;;;5.88;2.72;;;29.30;99.90;;;;;;10437803;28;20536;-91
2023/06/07 14:23:23;;;;;;;4.75;3.85;;;29.20;99.90;;;;;;10469679;28;20189;-76
2023/06/07 14:28:45;;;;;;;6.93;4.00;;;29.40;99.90;;;;;;10434566;28;20236;-87
2023/06/07 14:34:06;;;;;;;3.70;3.08;;;29.40;99.90;;;;;;10433113;28;20220;-82
2023/06/07 14:39:28;;;;;;;5.65;3.22;;;29.60;99.90;;;;;;10460626;28;20557;-75
2023/06/07 14:44:50;;;;;;;4.35;3.10;;;29.70;99.90;;;;;;10442863;28;20202;-88
2023/06/07 14:50:11;;;;;;;3.65;2.78;;;29.50;99.90;;;;;;10474847;28;20286;-79
2023/06/07 14:55:33;;;;;;;3.58;3.08;;;29.20;99.90;;;;;;10442720;28;20576;-78
2023/06/07 15:00:54;;;;;;;6.45;4.10;;;29.20;99.90;;;;;;10430780;28;20250;-83
2023/06/07 15:06:16;;;;;;;3.95;2.80;;;29.00;99.90;;;;;;10437754;28;20215;-85
2023/06/07 15:11:37;;;;;;;4.03;2.60;;;28.90;99.90;;;;;;10479329;28;20521;-75
2023/06/07 15:17:00;;;;;;;7.75;3.40;;;29.00;99.90;;;;;;10478096;28;20301;-84
2023/06/07 15:22:22;;;;;;;9.93;3.50;;;29.20;99.90;;;;;;10471618;28;20199;-78
2023/06/07 15:27:43;;;;;;;8.20;3.20;;;29.00;99.90;;;;;;10447862;28;20199;-79
2023/06/07 15:33:05;;;;;;;4.80;2.78;;;28.90;99.90;;;;;;10478688;28;20203;-78
2023/06/07 15:38:29;;;;;;;9.38;4.18;;;29.00;99.90;;;;;;10469467;28;20192;-81
2023/06/07 15:43:51;;;;;;;3.67;2.90;;;28.90;99.90;;;;;;10436848;28;20192;-85
2023/06/07 15:49:12;;;;;;;3.13;2.67;;;28.80;99.90;;;;;;10435441;28;20262;-82
2023/06/07 15:54:33;;;;;;;6.95;3.60;;;28.50;99.90;;;;;;10436823;28;20533;-84
2023/06/07 15:59:54;;;;;;;4.10;2.90;;;28.20;99.90;;;;;;10436643;28;20287;-82
2023/06/07 16:05:15;;;;;;;4.10;2.75;;;28.00;99.90;;;;;;10440914;28;20203;-79
2023/06/07 16:10:36;;;;;;;7.47;3.80;;;28.00;99.90;;;;;;10475877;28;20233;-77
2023/06/07 16:15:57;;;;;;;5.75;3.97;;;27.90;99.90;;;;;;10479110;28;20521;-80
2023/06/07 16:21:19;;;;;;;4.82;3.60;;;27.70;99.90;;;;;;10450957;28;20243;-85
2023/06/07 16:26:41;;;;;;;6.57;3.50;;;27.70;99.90;;;;;;10438093;28;20203;-82
2023/06/07 16:32:02;;;;;;;5.85;3.33;;;27.70;99.90;;;;;;10476122;28;20306;-85
2023/06/07 16:37:23;;;;;;;6.18;3.40;;;27.60;99.90;;;;;;10463707;28;20499;-85
2023/06/07 16:42:46;;;;;;;13.45;3.95;;;27.60;99.90;;;;;;10443408;28;20189;-79
2023/06/07 16:48:06;;;;;;;15.27;2.72;;;27.20;99.90;;;;;;10478381;28;20310;-79
2023/06/07 16:53:28;;;;;;;6.40;3.05;;;27.20;99.90;;;;;;10462027;28;20204;-81
2023/06/07 16:58:49;;;;;;;3.90;3.22;;;27.20;99.90;;;;;;10474043;28;20561;-83
2023/06/07 17:04:11;;;;;;;4.93;2.83;;;27.00;99.90;;;;;;10483219;28;20490;-81
2023/06/07 17:09:32;;;;;;;5.30;3.47;;;26.80;99.90;;;;;;10463546;28;20223;-85
2023/06/07 17:14:54;;;;;;;6.80;3.33;;;26.80;99.90;;;;;;10449093;28;20280;-81
2023/06/07 17:20:15;;;;;;;6.60;3.20;;;26.60;99.90;;;;;;10441134;28;20239;-83
2023/06/07 17:25:37;;;;;;;6.03;3.30;;;26.50;99.90;;;;;;10455895;28;20278;-85
2023/06/07 17:31:03;;;;;;;4.25;2.78;;;26.40;99.90;;;;;;10482215;28;20219;-86
2023/06/07 17:36:27;;;;;;;7.18;2.97;;;26.20;99.90;;;;;;10467926;28;20203;-84
2023/06/07 17:41:48;;;;;;;6.63;2.60;;;26.00;99.90;;;;;;10463901;28;20377;-86
2023/06/07 17:47:10;;;;;;;4.43;2.70;;;25.80;99.90;;;;;;10467553;28;20230;-82
2023/06/07 17:52:32;;;;;;;3.47;2.45;;;25.60;99.90;;;;;;10426639;28;20295;-78
2023/06/07 17:57:54;;;;;;;5.75;2.80;;;25.40;99.90;;;;;;10481748;28;20189;-81
2023/06/07 18:03:18;;;;;;;5.43;3.00;;;25.20;99.90;;;;;;10440052;28;20484;-76
2023/06/07 18:08:40;;;;;;;3.70;2.78;;;25.00;99.90;;;;;;10439082;28;20216;-82
2023/06/07 18:14:01;;;;;;;7.38;3.00;;;24.80;99.90;;;;;;10440361;28;20279;-83
2023/06/07 18:19:22;;;;;;;4.68;3.13;;;24.70;99.90;;;;;;10440447;28;20264;-83
2023/06/07 18:24:43;;;;;;;6.63;4.18;;;24.60;99.90;;;;;;10466387;28;20199;-85
2023/06/07 18:30:06;;;;;;;9.35;3.47;;;24.50;99.90;;;;;;10449748;28;20216;-86
2023/06/07 18:35:27;;;;;;;4.80;2.90;;;24.40;99.90;;;;;;10439683;28;20188;-86
2023/06/07 18:40:51;;;;;;;4.55;3.60;;;24.20;99.90;;;;;;10445514;28;20295;-79
2023/06/07 18:46:12;;;;;;;7.25;3.95;;;24.10;99.90;;;;;;10477141;28;20196;-85
2023/06/07 18:51:33;;;;;;;5.57;3.38;;;23.90;99.90;;;;;;10477579;28;20235;-83
2023/06/07 18:56:57;;;;;;;7.45;3.80;;;23.70;99.90;;;;;;10480265;28;20187;-85
2023/06/07 19:02:18;;;;;;;7.32;4.40;;;23.60;99.90;;;;;;10490947;28;20335;-83
2023/06/07 19:07:40;;;;;;;5.10;3.63;;;23.50;99.90;;;;;;10455513;28;20200;-79
2023/06/07 19:13:01;;;;;;;6.45;3.50;;;23.30;99.90;;;;;;10447022;28;20397;-84
2023/06/07 19:18:22;;;;;;;5.20;3.15;;;23.20;99.90;;;;;;10470874;28;20192;-84
2023/06/07 19:23:44;;;;;;;4.60;3.30;;;23.00;99.90;;;;;;10474754;28;20204;-81
2023/06/07 19:29:05;;;;;;;8.15;3.70;;;;;;;;;;10450744;28;20235;-76
2023/06/07 19:34:27;;;;;;;10.27;4.35;;;22.80;99.90;;;;;;10448425;28;20192;-80
2023/06/07 19:39:48;;;;;;;6.03;4.32;;;22.70;99.90;;;;;;10472337;28;20281;-77
2023/06/07 19:45:11;;;;;;;9.60;4.90;;;22.50;99.90;;;;;;10477457;28;20436;-74
2023/06/07 19:50:32;;;;;;;6.22;3.75;;;22.40;99.90;;;;;;10477912;28;20242;-74
2023/06/07 19:55:54;;;;;;;6.72;3.13;;;22.20;99.90;;;;;;10457985;28;20204;-76
2023/06/07 20:01:15;;;;;;;6.15;3.63;;;22.70;1.00;;;;;;10436999;28;20196;-77
2023/06/07 20:06:36;;;;;;;4.38;3.42;;;22.10;1.00;;;;;;10436214;28;20199;-75
2023/06/07 20:11:58;;;;;;;4.95;3.17;;;21.90;99.90;;;;;;10443916;28;20230;-74
2023/06/07 20:17:21;;;;;;;4.60;3.45;;;21.80;99.90;;;;;;10444616;28;20414;-76
2023/06/07 20:22:42;;;;;;;7.70;3.50;;;21.70;99.90;;;;;;10457508;28;20518;-77
2023/06/07 20:28:04;;;;;;;5.50;3.95;;;21.60;99.90;;;;;;10470436;28;20447;-85
2023/06/07 20:33:25;;;;;;;9.43;4.47;;;21.50;99.90;;;;;;10484427;28;20269;-75
2023/06/07 20:38:47;;;;;;;5.53;4.18;;;21.40;99.90;;;;;;10452887;28;20199;-76
2023/06/07 20:44:09;;;;;;;9.55;4.88;;;21.30;99.90;;;;;;10483984;28;20241;-79
2023/06/07 20:49:30;;;;;;;10.52;5.60;;;21.20;99.90;;;;;;10474322;28;20400;-78
2023/06/07 20:54:51;;;;;;;9.82;5.80;;;21.10;99.90;;;;;;10428271;28;20506;-77
2023/06/07 21:00:13;;;;;;;8.30;5.32;;;21.00;99.90;;;;;;10443034;28;20196;-81
2023/06/07 21:05:35;;;;;;;8.57;5.47;;;20.90;99.90;;;;;;10463527;28;20367;-86
2023/06/07 21:10:56;;;;;;;8.40;5.75;;;20.90;99.90;;;;;;10438720;28;20303;-79
2023/06/07 21:16:17;;;;;;;9.63;6.22;;;20.70;99.90;;;;;;10441405;28;20490;-77
2023/06/07 21:21:38;;;;;;;10.95;6.45;;;20.70;99.90;;;;;;10442316;28;20216;-84
2023/06/07 21:27:00;;;;;;;12.73;7.18;;;20.50;99.90;;;;;;10430291;28;20542;-74
2023/06/07 21:32:21;;;;;;;10.30;6.32;;;20.40;99.90;;;;;;10473026;28;20227;-75
2023/06/07 21:37:42;;;;;;;10.13;5.50;;;20.30;99.90;;;;;;10482624;28;20203;-77
2023/06/07 21:43:04;;;;;;;13.93;5.70;;;20.10;99.90;;;;;;10451399;28;20283;-74
2023/06/07 21:48:26;;;;;;;6.88;4.63;;;20.00;99.90;;;;;;10477073;28;20239;-74
2023/06/07 21:53:48;;;;;;;10.85;5.47;;;20.00;99.90;;;;;;10481464;28;20307;-87
2023/06/07 21:59:10;;;;;;;6.68;4.90;;;20.00;99.90;;;;;;10440257;28;20208;-86
2023/06/07 22:04:30;;;;;;;8.20;4.88;;;19.90;99.90;;;;;;10440181;28;20212;-85
2023/06/07 22:09:52;;;;;;;10.23;4.85;;;19.80;99.90;;;;;;10443669;28;20224;-81
2023/06/07 22:15:18;;;;;;;8.70;5.65;;;19.70;99.90;;;;;;10440021;28;20257;-78
2023/06/07 22:20:40;;;;;;;8.23;5.10;;;19.60;99.90;;;;;;10438753;28;20219;-79
2023/06/07 22:26:01;;;;;;;9.93;5.88;;;19.60;99.90;;;;;;10452701;28;20243;-77
2023/06/07 22:31:22;;;;;;;7.13;4.90;;;19.50;99.90;;;;;;10448517;28;20314;-77
2023/06/07 22:36:44;;;;;;;8.35;5.25;;;19.50;99.90;;;;;;10478786;28;20206;-78
2023/06/07 22:42:06;;;;;;;8.80;6.13;;;19.50;99.90;;;;;;10477220;28;20249;-75
2023/06/07 22:47:32;;;;;;;14.75;7.32;;;19.30;99.90;;;;;;10479839;28;20383;-79
2023/06/07 22:52:55;;;;;;;11.52;7.18;;;19.20;99.90;;;;;;10479027;28;20227;-83
2023/06/07 22:58:16;;;;;;;15.38;9.38;;;19.10;99.90;;;;;;10440277;28;20250;-74
2023/06/07 23:03:39;;;;;;;14.13;8.60;;;19.00;99.90;;;;;;10436976;28;20196;-76
2023/06/07 23:09:02;;;;;;;16.42;9.00;;;19.00;99.90;;;;;;10441062;28;20283;-80
2023/06/07 23:14:23;;;;;;;15.02;8.60;;;18.90;99.90;;;;;;10437807;28;20197;-80
2023/06/07 23:19:49;;;;;;;13.68;7.70;;;18.80;99.90;;;;;;10437840;28;20193;-81
2023/06/07 23:25:12;;;;;;;16.00;7.40;;;18.80;1.00;;;;;;10451670;28;20227;-74
2023/06/07 23:30:33;;;;;;;12.77;6.82;;;18.70;99.90;;;;;;10454439;28;20418;-76
2023/06/07 23:35:54;;;;;;;10.90;6.78;;;18.60;99.90;;;;;;10478240;28;20218;-79
2023/06/07 23:41:16;;;;;;;14.15;6.88;;;18.70;99.90;;;;;;10446794;28;20213;-74
2023/06/07 23:46:37;;;;;;;8.70;6.10;;;18.50;99.90;;;;;;10457845;28;20191;-77
2023/06/07 23:51:59;;;;;;;7.22;5.75;;;18.50;99.90;;;;;;10476625;28;20262;-78
2023/06/07 23:57:20;;;;;;;10.50;6.85;;;18.40;99.90;;;;;;10474360;28;20537;-77
